sensor_id;sensor_type;location;lat;lon;timestamp;pressure;altitude;pressure_sealevel;temperature;humidity
32083;BME280;18597;48.328;7.932;2024-03-23T00:51:12;98827.97;;;10.53;100.00
32083;BME280;18597;48.328;7.932;2024-03-23T00:53:38;98836.56;;;10.93;100.00
32083;BME280;18597;48.328;7.932;2024-03-23T00:56:04;98835.41;;;11.13;100.00
32083;BME280;18597;48.328;7.932;2024-03-23T00:58:30;98831.41;;;11.35;100.00
32083;BME280;18597;48.328;7.932;2024-03-23T01:00:56;98827.34;;;11.75;100.00
32083;BME280;18597;48.328;7.932;2024-03-23T01:03:22;98816.28;;;11.96;100.00
32083;BME280;18597;48.328;7.932;2024-03-23T01:05:47;98813.63;;;12.04;100.00
32083;BME280;18597;48.328;7.932;2024-03-23T01:08:14;98806.88;;;11.91;100.00
32083;BME280;18597;48.328;7.932;2024-03-23T01:10:40;98808.91;;;11.98;100.00
32083;BME280;18597;48.328;7.932;2024-03-23T01:13:06;98821.66;;;12.04;100.00
32083;BME280;18597;48.328;7.932;2024-03-23T01:15:32;98810.84;;;12.21;100.00
32083;BME280;18597;48.328;7.932;2024-03-23T01:17:58;98811.22;;;12.27;100.00
32083;BME280;18597;48.328;7.932;2024-03-23T01:20:23;98813.94;;;12.43;100.00
32083;BME280;18597;48.328;7.932;2024-03-23T01:22:49;98799.94;;;12.57;100.00
32083;BME280;18597;48.328;7.932;2024-03-23T01:25:15;98810.03;;;12.80;100.00
32083;BME280;18597;48.328;7.932;2024-03-23T01:27:41;98807.34;;;12.80;100.00
32083;BME280;18597;48.328;7.932;2024-03-23T01:30:07;98809.47;;;12.68;100.00
32083;BME280;18597;48.328;7.932;2024-03-23T01:32:33;98802.63;;;12.82;100.00
32083;BME280;18597;48.328;7.932;2024-03-23T01:34:59;98808.81;;;12.66;100.00
32083;BME280;18597;48.328;7.932;2024-03-23T01:37:24;98799.56;;;12.44;100.00
32083;BME280;18597;48.328;7.932;2024-03-23T01:39:50;98797.25;;;12.65;100.00
32083;BME280;18597;48.328;7.932;2024-03-23T01:42:16;98793.91;;;12.55;100.00
32083;BME280;18597;48.328;7.932;2024-03-23T01:44:42;98798.03;;;12.33;100.00
32083;BME280;18597;48.328;7.932;2024-03-23T01:47:08;98792.91;;;12.64;100.00
32083;BME280;18597;48.328;7.932;2024-03-23T01:49:35;98790.53;;;12.61;100.00
32083;BME280;18597;48.328;7.932;2024-03-23T01:52:01;98794.09;;;12.78;100.00
32083;BME280;18597;48.328;7.932;2024-03-23T01:54:28;98790.25;;;12.81;100.00
32083;BME280;18597;48.328;7.932;2024-03-23T01:56:55;98784.06;;;13.04;100.00
32083;BME280;18597;48.328;7.932;2024-03-23T01:59:21;98783.75;;;13.08;100.00
32083;BME280;18597;48.328;7.932;2024-03-23T02:01:47;98782.91;;;13.15;100.00
32083;BME280;18597;48.328;7.932;2024-03-23T02:04:13;98783.91;;;13.39;100.00
32083;BME280;18597;48.328;7.932;2024-03-23T02:06:38;98789.09;;;13.40;100.00
32083;BME280;18597;48.328;7.932;2024-03-23T02:09:04;98788.75;;;13.51;100.00
32083;BME280;18597;48.328;7.932;2024-03-23T02:11:31;98791.97;;;13.39;100.00
32083;BME280;18597;48.328;7.932;2024-03-23T02:13:56;98786.44;;;13.24;100.00
32083;BME280;18597;48.328;7.932;2024-03-23T02:16:23;98801.50;;;13.00;100.00
32083;BME280;18597;48.328;7.932;2024-03-23T02:18:49;98787.75;;;12.87;100.00
32083;BME280;18597;48.328;7.932;2024-03-23T02:21:15;98787.75;;;12.95;100.00
32083;BME280;18597;48.328;7.932;2024-03-23T02:23:41;98794.59;;;12.98;100.00
32083;BME280;18597;48.328;7.932;2024-03-23T02:26:07;98785.56;;;12.83;100.00
32083;BME280;18597;48.328;7.932;2024-03-23T02:28:33;98779.69;;;12.71;100.00
32083;BME280;18597;48.328;7.932;2024-03-23T02:30:58;98775.59;;;12.42;100.00
32083;BME280;18597;48.328;7.932;2024-03-23T02:33:26;98780.78;;;12.36;100.00
32083;BME280;18597;48.328;7.932;2024-03-23T02:35:56;98776.00;;;12.05;100.00
32083;BME280;18597;48.328;7.932;2024-03-23T02:38:23;98768.28;;;12.02;100.00
32083;BME280;18597;48.328;7.932;2024-03-23T02:40:49;98764.63;;;11.77;100.00
32083;BME280;18597;48.328;7.932;2024-03-23T02:43:14;98763.81;;;11.51;100.00
32083;BME280;18597;48.328;7.932;2024-03-23T02:45:40;98751.97;;;11.27;100.00
32083;BME280;18597;48.328;7.932;2024-03-23T02:48:06;98738.66;;;11.35;100.00
32083;BME280;18597;48.328;7.932;2024-03-23T02:50:32;98742.69;;;11.39;100.00
32083;BME280;18597;48.328;7.932;2024-03-23T02:52:58;98742.19;;;11.18;100.00
32083;BME280;18597;48.328;7.932;2024-03-23T02:55:24;98728.44;;;10.87;100.00
32083;BME280;18597;48.328;7.932;2024-03-23T02:57:49;98726.13;;;10.66;100.00
32083;BME280;18597;48.328;7.932;2024-03-23T03:00:15;98722.34;;;10.77;100.00
32083;BME280;18597;48.328;7.932;2024-03-23T03:02:41;98723.53;;;10.74;100.00
32083;BME280;18597;48.328;7.932;2024-03-23T03:05:07;98720.53;;;10.77;100.00
32083;BME280;18597;48.328;7.932;2024-03-23T03:07:34;98713.63;;;10.93;100.00
32083;BME280;18597;48.328;7.932;2024-03-23T03:10:00;98711.16;;;10.73;100.00
32083;BME280;18597;48.328;7.932;2024-03-23T03:12:26;98716.06;;;10.60;100.00
32083;BME280;18597;48.328;7.932;2024-03-23T03:14:52;98713.38;;;10.60;100.00
32083;BME280;18597;48.328;7.932;2024-03-23T03:17:18;98718.53;;;10.79;100.00
32083;BME280;18597;48.328;7.932;2024-03-23T03:19:44;98701.03;;;10.85;100.00
32083;BME280;18597;48.328;7.932;2024-03-23T03:22:11;98721.09;;;11.07;100.00
32083;BME280;18597;48.328;7.932;2024-03-23T03:24:36;98710.34;;;11.25;100.00
32083;BME280;18597;48.328;7.932;2024-03-23T03:27:02;98704.72;;;11.36;100.00
32083;BME280;18597;48.328;7.932;2024-03-23T03:29:29;98706.56;;;11.35;100.00
32083;BME280;18597;48.328;7.932;2024-03-23T03:32:02;98687.00;;;11.69;100.00
32083;BME280;18597;48.328;7.932;2024-03-23T03:34:28;98677.66;;;12.32;100.00
32083;BME280;18597;48.328;7.932;2024-03-23T03:36:54;98678.66;;;12.31;100.00
32083;BME280;18597;48.328;7.932;2024-03-23T03:39:20;98673.28;;;12.14;100.00
32083;BME280;18597;48.328;7.932;2024-03-23T03:41:46;98649.53;;;12.19;100.00
32083;BME280;18597;48.328;7.932;2024-03-23T03:44:12;98673.47;;;12.21;100.00
32083;BME280;18597;48.328;7.932;2024-03-23T03:46:37;98665.25;;;12.14;100.00
32083;BME280;18597;48.328;7.932;2024-03-23T03:49:03;98669.75;;;12.14;100.00
32083;BME280;18597;48.328;7.932;2024-03-23T03:51:29;98669.56;;;11.99;100.00
32083;BME280;18597;48.328;7.932;2024-03-23T03:53:55;98667.41;;;12.03;100.00
32083;BME280;18597;48.328;7.932;2024-03-23T03:56:20;98672.91;;;12.01;100.00
32083;BME280;18597;48.328;7.932;2024-03-23T03:58:48;98676.13;;;12.21;100.00
32083;BME280;18597;48.328;7.932;2024-03-23T04:01:14;98672.47;;;12.38;100.00
32083;BME280;18597;48.328;7.932;2024-03-23T04:03:39;98670.50;;;12.57;100.00
32083;BME280;18597;48.328;7.932;2024-03-23T04:06:09;98686.22;;;12.60;100.00
32083;BME280;18597;48.328;7.932;2024-03-23T04:08:35;98730.75;;;12.69;100.00
32083;BME280;18597;48.328;7.932;2024-03-23T04:11:02;98743.66;;;12.65;100.00
32083;BME280;18597;48.328;7.932;2024-03-23T04:13:27;98704.28;;;12.41;100.00
32083;BME280;18597;48.328;7.932;2024-03-23T04:15:55;98692.94;;;11.81;100.00
32083;BME280;18597;48.328;7.932;2024-03-23T04:18:22;98698.97;;;11.49;100.00
32083;BME280;18597;48.328;7.932;2024-03-23T04:20:48;98709.81;;;11.21;100.00
32083;BME280;18597;48.328;7.932;2024-03-23T04:23:14;98717.13;;;11.11;100.00
32083;BME280;18597;48.328;7.932;2024-03-23T04:25:40;98712.56;;;11.03;100.00
32083;BME280;18597;48.328;7.932;2024-03-23T04:28:06;98719.34;;;10.98;100.00
32083;BME280;18597;48.328;7.932;2024-03-23T04:30:32;98721.34;;;10.96;100.00
32083;BME280;18597;48.328;7.932;2024-03-23T04:32:58;98730.81;;;10.90;100.00
32083;BME280;18597;48.328;7.932;2024-03-23T04:35:24;98741.88;;;10.95;100.00
32083;BME280;18597;48.328;7.932;2024-03-23T04:37:51;98763.72;;;10.91;100.00
32083;BME280;18597;48.328;7.932;2024-03-23T04:40:18;98772.34;;;10.84;100.00
32083;BME280;18597;48.328;7.932;2024-03-23T04:42:44;98781.59;;;10.90;100.00
32083;BME280;18597;48.328;7.932;2024-03-23T04:45:10;98790.59;;;10.89;100.00
32083;BME280;18597;48.328;7.932;2024-03-23T04:47:37;98805.19;;;10.77;100.00
32083;BME280;18597;48.328;7.932;2024-03-23T04:50:04;98805.03;;;10.78;100.00
32083;BME280;18597;48.328;7.932;2024-03-23T04:52:30;98807.34;;;10.73;100.00
32083;BME280;18597;48.328;7.932;2024-03-23T04:54:56;98823.63;;;10.70;100.00
32083;BME280;18597;48.328;7.932;2024-03-23T04:57:22;98823.03;;;10.59;100.00
32083;BME280;18597;48.328;7.932;2024-03-23T04:59:48;98822.88;;;10.60;100.00
32083;BME280;18597;48.328;7.932;2024-03-23T05:02:14;98835.63;;;10.66;100.00
32083;BME280;18597;48.328;7.932;2024-03-23T05:04:40;98843.56;;;10.58;100.00
32083;BME280;18597;48.328;7.932;2024-03-23T05:07:07;98832.63;;;10.51;100.00
32083;BME280;18597;48.328;7.932;2024-03-23T05:09:33;98835.34;;;10.42;100.00
32083;BME280;18597;48.328;7.932;2024-03-23T05:12:00;98844.94;;;10.35;100.00
32083;BME280;18597;48.328;7.932;2024-03-23T05:14:26;98849.06;;;10.29;100.00
32083;BME280;18597;48.328;7.932;2024-03-23T05:16:53;98854.16;;;10.22;100.00
32083;BME280;18597;48.328;7.932;2024-03-23T05:19:18;98853.84;;;10.25;100.00
32083;BME280;18597;48.328;7.932;2024-03-23T05:21:44;98850.78;;;10.20;100.00
32083;BME280;18597;48.328;7.932;2024-03-23T05:24:11;98840.22;;;10.28;100.00
32083;BME280;18597;48.328;7.932;2024-03-23T05:26:38;98841.19;;;10.27;100.00
32083;BME280;18597;48.328;7.932;2024-03-23T05:29:03;98842.16;;;10.36;100.00
32083;BME280;18597;48.328;7.932;2024-03-23T05:31:31;98851.88;;;10.27;100.00
32083;BME280;18597;48.328;7.932;2024-03-23T05:33:57;98854.41;;;10.19;100.00
32083;BME280;18597;48.328;7.932;2024-03-23T05:36:23;98859.63;;;10.21;100.00
32083;BME280;18597;48.328;7.932;2024-03-23T05:38:50;98878.88;;;10.15;100.00
32083;BME280;18597;48.328;7.932;2024-03-23T05:41:16;98888.16;;;10.11;100.00
32083;BME280;18597;48.328;7.932;2024-03-23T05:43:42;98892.53;;;10.02;100.00
32083;BME280;18597;48.328;7.932;2024-03-23T05:46:08;98900.28;;;10.05;100.00
32083;BME280;18597;48.328;7.932;2024-03-23T05:48:34;98908.09;;;9.69;100.00
32083;BME280;18597;48.328;7.932;2024-03-23T05:51:01;98926.63;;;9.42;100.00
32083;BME280;18597;48.328;7.932;2024-03-23T05:53:27;98928.59;;;9.40;100.00
32083;BME280;18597;48.328;7.932;2024-03-23T05:56:03;98939.97;;;9.23;100.00
32083;BME280;18597;48.328;7.932;2024-03-23T05:58:29;98945.28;;;9.13;100.00
32083;BME280;18597;48.328;7.932;2024-03-23T06:01:03;98949.63;;;9.14;100.00
32083;BME280;18597;48.328;7.932;2024-03-23T06:03:29;98959.44;;;9.04;100.00
32083;BME280;18597;48.328;7.932;2024-03-23T06:05:55;98967.56;;;9.02;100.00
32083;BME280;18597;48.328;7.932;2024-03-23T06:08:22;98971.22;;;9.01;100.00
32083;BME280;18597;48.328;7.932;2024-03-23T06:10:49;98964.75;;;9.04;100.00
32083;BME280;18597;48.328;7.932;2024-03-23T06:13:16;98982.13;;;8.98;100.00
32083;BME280;18597;48.328;7.932;2024-03-23T06:15:43;98978.22;;;9.02;100.00
32083;BME280;18597;48.328;7.932;2024-03-23T06:18:09;98966.44;;;8.95;100.00
32083;BME280;18597;48.328;7.932;2024-03-23T06:20:35;98952.13;;;8.96;100.00
32083;BME280;18597;48.328;7.932;2024-03-23T06:23:01;98958.88;;;9.00;100.00
32083;BME280;18597;48.328;7.932;2024-03-23T06:25:29;98982.00;;;9.00;100.00
32083;BME280;18597;48.328;7.932;2024-03-23T06:27:55;99001.22;;;9.03;100.00
32083;BME280;18597;48.328;7.932;2024-03-23T06:30:21;99012.34;;;9.28;100.00
32083;BME280;18597;48.328;7.932;2024-03-23T06:32:47;99011.09;;;9.51;100.00
32083;BME280;18597;48.328;7.932;2024-03-23T06:35:13;99015.06;;;9.76;100.00
32083;BME280;18597;48.328;7.932;2024-03-23T06:37:39;99019.13;;;9.70;100.00
32083;BME280;18597;48.328;7.932;2024-03-23T06:40:07;99028.38;;;9.66;100.00
32083;BME280;18597;48.328;7.932;2024-03-23T06:42:36;99046.63;;;9.71;100.00
32083;BME280;18597;48.328;7.932;2024-03-23T06:45:03;99057.84;;;9.65;100.00
32083;BME280;18597;48.328;7.932;2024-03-23T06:47:30;99064.88;;;9.56;100.00
32083;BME280;18597;48.328;7.932;2024-03-23T06:49:56;99067.53;;;9.47;100.00
32083;BME280;18597;48.328;7.932;2024-03-23T06:52:22;99069.59;;;9.43;100.00
32083;BME280;18597;48.328;7.932;2024-03-23T06:54:48;99070.97;;;9.28;100.00
32083;BME280;18597;48.328;7.932;2024-03-23T06:57:13;99077.56;;;9.24;100.00
32083;BME280;18597;48.328;7.932;2024-03-23T06:59:39;99082.63;;;9.27;100.00
32083;BME280;18597;48.328;7.932;2024-03-23T07:02:06;99097.75;;;9.16;100.00
32083;BME280;18597;48.328;7.932;2024-03-23T07:04:34;99113.56;;;9.08;100.00
32083;BME280;18597;48.328;7.932;2024-03-23T07:07:01;99114.25;;;9.01;100.00
32083;BME280;18597;48.328;7.932;2024-03-23T07:09:29;99103.84;;;8.98;100.00
32083;BME280;18597;48.328;7.932;2024-03-23T07:11:56;99129.63;;;8.97;100.00
32083;BME280;18597;48.328;7.932;2024-03-23T07:14:23;99127.56;;;9.01;100.00
32083;BME280;18597;48.328;7.932;2024-03-23T07:16:49;99129.13;;;9.13;100.00
32083;BME280;18597;48.328;7.932;2024-03-23T07:19:17;99125.06;;;9.09;100.00
32083;BME280;18597;48.328;7.932;2024-03-23T07:21:44;99138.13;;;9.12;100.00
32083;BME280;18597;48.328;7.932;2024-03-23T07:24:10;99145.03;;;9.14;100.00
32083;BME280;18597;48.328;7.932;2024-03-23T07:26:37;99154.22;;;9.01;100.00
32083;BME280;18597;48.328;7.932;2024-03-23T07:29:05;99170.19;;;9.01;100.00
32083;BME280;18597;48.328;7.932;2024-03-23T07:31:30;99167.59;;;9.20;100.00
32083;BME280;18597;48.328;7.932;2024-03-23T07:33:56;99173.00;;;9.30;100.00
32083;BME280;18597;48.328;7.932;2024-03-23T07:36:22;99181.41;;;9.35;100.00
32083;BME280;18597;48.328;7.932;2024-03-23T07:38:48;99176.53;;;9.40;100.00
32083;BME280;18597;48.328;7.932;2024-03-23T07:41:17;99190.78;;;9.60;100.00
32083;BME280;18597;48.328;7.932;2024-03-23T07:43:43;99194.47;;;9.68;100.00
32083;BME280;18597;48.328;7.932;2024-03-23T07:46:10;99200.09;;;9.75;100.00
32083;BME280;18597;48.328;7.932;2024-03-23T07:48:38;99210.03;;;10.33;100.00
32083;BME280;18597;48.328;7.932;2024-03-23T07:51:09;99214.50;;;11.74;100.00
32083;BME280;18597;48.328;7.932;2024-03-23T07:53:37;99212.94;;;11.81;100.00
32083;BME280;18597;48.328;7.932;2024-03-23T07:56:07;99217.34;;;11.63;100.00
32083;BME280;18597;48.328;7.932;2024-03-23T07:58:34;99221.13;;;11.43;100.00
32083;BME280;18597;48.328;7.932;2024-03-23T08:01:05;99216.97;;;13.28;100.00
32083;BME280;18597;48.328;7.932;2024-03-23T08:03:35;99217.28;;;13.59;100.00
32083;BME280;18597;48.328;7.932;2024-03-23T08:06:17;99227.53;;;13.55;92.58
32083;BME280;18597;48.328;7.932;2024-03-23T08:08:48;99224.53;;;12.89;95.95
32083;BME280;18597;48.328;7.932;2024-03-23T08:11:14;99236.69;;;12.39;99.31
32083;BME280;18597;48.328;7.932;2024-03-23T08:13:42;99247.97;;;11.78;98.86
32083;BME280;18597;48.328;7.932;2024-03-23T08:16:08;99254.78;;;11.35;100.00
32083;BME280;18597;48.328;7.932;2024-03-23T08:18:35;99261.47;;;10.93;100.00
32083;BME280;18597;48.328;7.932;2024-03-23T08:21:04;99273.72;;;10.56;100.00
32083;BME280;18597;48.328;7.932;2024-03-23T08:23:33;99285.38;;;10.36;100.00
32083;BME280;18597;48.328;7.932;2024-03-23T08:26:01;99295.03;;;10.27;100.00
32083;BME280;18597;48.328;7.932;2024-03-23T08:28:27;99302.75;;;10.21;100.00
32083;BME280;18597;48.328;7.932;2024-03-23T08:30:55;99300.66;;;10.24;98.36
32083;BME280;18597;48.328;7.932;2024-03-23T08:33:22;99302.25;;;10.37;91.38
32083;BME280;18597;48.328;7.932;2024-03-23T08:35:56;99310.41;;;10.64;90.13
32083;BME280;18597;48.328;7.932;2024-03-23T08:38:23;99308.75;;;10.92;85.52
32083;BME280;18597;48.328;7.932;2024-03-23T08:40:59;99305.56;;;11.45;86.82
32083;BME280;18597;48.328;7.932;2024-03-23T08:43:26;99300.13;;;11.74;80.18
32083;BME280;18597;48.328;7.932;2024-03-23T08:45:53;99300.41;;;11.71;76.06
32083;BME280;18597;48.328;7.932;2024-03-23T08:48:20;99301.75;;;11.48;80.06
32083;BME280;18597;48.328;7.932;2024-03-23T08:50:47;99300.75;;;11.58;78.74
32083;BME280;18597;48.328;7.932;2024-03-23T08:53:13;99305.41;;;11.93;78.91
32083;BME280;18597;48.328;7.932;2024-03-23T08:55:39;99307.34;;;12.11;72.55
32083;BME280;18597;48.328;7.932;2024-03-23T08:58:05;99315.56;;;12.45;70.79
32083;BME280;18597;48.328;7.932;2024-03-23T09:00:34;99309.34;;;12.72;65.17
32083;BME280;18597;48.328;7.932;2024-03-23T09:03:00;99310.16;;;12.90;62.85
32083;BME280;18597;48.328;7.932;2024-03-23T09:05:27;99316.59;;;13.15;60.00
32083;BME280;18597;48.328;7.932;2024-03-23T09:07:54;99323.19;;;13.21;61.84
32083;BME280;18597;48.328;7.932;2024-03-23T09:10:20;99311.56;;;12.94;60.05
32083;BME280;18597;48.328;7.932;2024-03-23T09:12:45;99313.81;;;12.54;59.01
32083;BME280;18597;48.328;7.932;2024-03-23T09:15:11;99322.09;;;12.42;62.01
32083;BME280;18597;48.328;7.932;2024-03-23T09:17:37;99322.59;;;12.28;68.40
32083;BME280;18597;48.328;7.932;2024-03-23T09:20:03;99316.56;;;12.26;71.02
32083;BME280;18597;48.328;7.932;2024-03-23T09:22:30;99319.31;;;12.34;65.09
32083;BME280;18597;48.328;7.932;2024-03-23T09:24:55;99319.91;;;12.56;62.43
32083;BME280;18597;48.328;7.932;2024-03-23T09:27:21;99305.28;;;12.86;63.43
32083;BME280;18597;48.328;7.932;2024-03-23T09:29:47;99296.13;;;13.14;60.43
32083;BME280;18597;48.328;7.932;2024-03-23T09:32:13;99298.53;;;13.61;59.07
32083;BME280;18597;48.328;7.932;2024-03-23T09:34:38;99290.31;;;14.05;56.29
32083;BME280;18597;48.328;7.932;2024-03-23T09:37:04;99296.38;;;13.73;54.27
32083;BME280;18597;48.328;7.932;2024-03-23T09:39:30;99283.22;;;13.53;53.76
32083;BME280;18597;48.328;7.932;2024-03-23T09:41:58;99281.53;;;13.09;53.48
32083;BME280;18597;48.328;7.932;2024-03-23T09:44:24;99282.59;;;13.16;54.31
32083;BME280;18597;48.328;7.932;2024-03-23T09:46:51;99288.81;;;13.42;52.66
32083;BME280;18597;48.328;7.932;2024-03-23T09:49:17;99283.97;;;13.20;52.21
32083;BME280;18597;48.328;7.932;2024-03-23T09:51:43;99288.38;;;13.29;50.79
32083;BME280;18597;48.328;7.932;2024-03-23T09:54:09;99288.41;;;13.55;50.55
32083;BME280;18597;48.328;7.932;2024-03-23T09:56:35;99290.22;;;13.28;51.84
32083;BME280;18597;48.328;7.932;2024-03-23T09:59:02;99310.09;;;13.18;53.67
32083;BME280;18597;48.328;7.932;2024-03-23T10:01:30;99311.47;;;13.04;53.95
32083;BME280;18597;48.328;7.932;2024-03-23T10:03:56;99315.16;;;12.85;55.15
32083;BME280;18597;48.328;7.932;2024-03-23T10:06:22;99322.41;;;12.57;54.87
32083;BME280;18597;48.328;7.932;2024-03-23T10:08:52;99314.66;;;12.36;54.96
32083;BME280;18597;48.328;7.932;2024-03-23T10:11:21;99323.94;;;12.14;53.93
32083;BME280;18597;48.328;7.932;2024-03-23T10:13:47;99326.97;;;12.02;54.59
32083;BME280;18597;48.328;7.932;2024-03-23T10:16:22;99315.06;;;11.86;55.13
32083;BME280;18597;48.328;7.932;2024-03-23T10:18:49;99329.34;;;11.58;55.09
32083;BME280;18597;48.328;7.932;2024-03-23T10:21:16;99344.72;;;11.36;58.74
32083;BME280;18597;48.328;7.932;2024-03-23T10:23:43;99376.94;;;10.67;72.58
32083;BME280;18597;48.328;7.932;2024-03-23T10:26:21;99395.34;;;9.48;100.00
32083;BME280;18597;48.328;7.932;2024-03-23T10:28:59;99414.94;;;8.51;100.00
32083;BME280;18597;48.328;7.932;2024-03-23T10:31:28;99438.28;;;8.02;100.00
32083;BME280;18597;48.328;7.932;2024-03-23T10:33:54;99445.59;;;7.65;100.00
32083;BME280;18597;48.328;7.932;2024-03-23T10:36:23;99440.16;;;7.32;100.00
32083;BME280;18597;48.328;7.932;2024-03-23T10:38:51;99429.28;;;7.00;100.00
32083;BME280;18597;48.328;7.932;2024-03-23T10:41:18;99434.03;;;6.83;100.00
32083;BME280;18597;48.328;7.932;2024-03-23T10:43:47;99425.09;;;6.84;100.00
32083;BME280;18597;48.328;7.932;2024-03-23T10:46:13;99408.84;;;6.89;100.00
32083;BME280;18597;48.328;7.932;2024-03-23T10:48:39;99389.31;;;7.01;100.00
32083;BME280;18597;48.328;7.932;2024-03-23T10:51:07;99397.03;;;7.28;100.00
32083;BME280;18597;48.328;7.932;2024-03-23T10:53:35;99397.88;;;7.64;100.00
32083;BME280;18597;48.328;7.932;2024-03-23T10:56:02;99407.66;;;8.30;100.00
32083;BME280;18597;48.328;7.932;2024-03-23T10:58:42;99400.94;;;9.24;100.00
32083;BME280;18597;48.328;7.932;2024-03-23T11:01:13;99402.78;;;9.96;100.00
32083;BME280;18597;48.328;7.932;2024-03-23T11:03:47;99402.72;;;10.07;100.00
32083;BME280;18597;48.328;7.932;2024-03-23T11:06:36;99411.47;;;10.19;100.00
32083;BME280;18597;48.328;7.932;2024-03-23T11:09:02;99406.13;;;10.19;100.00
32083;BME280;18597;48.328;7.932;2024-03-23T11:11:28;99401.06;;;10.46;100.00
32083;BME280;18597;48.328;7.932;2024-03-23T11:13:58;99395.78;;;10.75;100.00
32083;BME280;18597;48.328;7.932;2024-03-23T11:16:26;99395.94;;;10.83;100.00
32083;BME280;18597;48.328;7.932;2024-03-23T11:19:36;99389.31;;;10.68;100.00
32083;BME280;18597;48.328;7.932;2024-03-23T11:22:03;99385.84;;;10.97;100.00
32083;BME280;18597;48.328;7.932;2024-03-23T11:24:31;99389.06;;;11.39;100.00
32083;BME280;18597;48.328;7.932;2024-03-23T11:26:57;99385.88;;;12.02;100.00
32083;BME280;18597;48.328;7.932;2024-03-23T11:29:29;99396.88;;;12.99;100.00
32083;BME280;18597;48.328;7.932;2024-03-23T11:31:56;99391.47;;;13.62;100.00
32083;BME280;18597;48.328;7.932;2024-03-23T11:34:22;99388.09;;;13.42;76.22
32083;BME280;18597;48.328;7.932;2024-03-23T11:36:48;99390.88;;;13.32;87.78
32083;BME280;18597;48.328;7.932;2024-03-23T11:39:19;99392.38;;;12.99;93.11
32083;BME280;18597;48.328;7.932;2024-03-23T11:41:55;99377.88;;;12.74;89.59
32083;BME280;18597;48.328;7.932;2024-03-23T11:44:25;99378.69;;;12.02;92.14
32083;BME280;18597;48.328;7.932;2024-03-23T11:46:52;99370.41;;;11.76;98.25
32083;BME280;18597;48.328;7.932;2024-03-23T11:49:29;99378.41;;;11.96;100.00
32083;BME280;18597;48.328;7.932;2024-03-23T11:51:56;99365.75;;;12.25;94.00
32083;BME280;18597;48.328;7.932;2024-03-23T11:54:25;99372.16;;;12.87;93.04
32083;BME280;18597;48.328;7.932;2024-03-23T11:56:59;99356.53;;;13.36;81.05
32083;BME280;18597;48.328;7.932;2024-03-23T11:59:41;99360.81;;;13.99;80.81
32083;BME280;18597;48.328;7.932;2024-03-23T12:02:10;99356.59;;;13.96;70.20
32083;BME280;18597;48.328;7.932;2024-03-23T12:04:38;99359.25;;;13.62;77.31
32083;BME280;18597;48.328;7.932;2024-03-23T12:07:21;99342.94;;;13.89;74.20
32083;BME280;18597;48.328;7.932;2024-03-23T12:10:04;99350.50;;;14.20;76.52
32083;BME280;18597;48.328;7.932;2024-03-23T12:12:30;99340.38;;;14.06;71.87
32083;BME280;18597;48.328;7.932;2024-03-23T12:15:11;99325.97;;;13.81;75.89
32083;BME280;18597;48.328;7.932;2024-03-23T12:17:38;99333.09;;;13.38;71.47
32083;BME280;18597;48.328;7.932;2024-03-23T12:20:05;99318.09;;;13.53;69.88
32083;BME280;18597;48.328;7.932;2024-03-23T12:22:31;99311.50;;;13.74;68.83
32083;BME280;18597;48.328;7.932;2024-03-23T12:24:56;99298.69;;;13.68;61.36
32083;BME280;18597;48.328;7.932;2024-03-23T12:27:23;99307.16;;;13.47;60.95
32083;BME280;18597;48.328;7.932;2024-03-23T12:29:49;99315.84;;;13.05;65.67
32083;BME280;18597;48.328;7.932;2024-03-23T12:32:15;99310.34;;;12.26;67.33
32083;BME280;18597;48.328;7.932;2024-03-23T12:34:42;99305.41;;;12.48;67.37
32083;BME280;18597;48.328;7.932;2024-03-23T12:37:08;99315.06;;;12.59;63.71
32083;BME280;18597;48.328;7.932;2024-03-23T12:39:35;99319.34;;;12.52;59.97
32083;BME280;18597;48.328;7.932;2024-03-23T12:42:01;99321.91;;;12.26;56.51
32083;BME280;18597;48.328;7.932;2024-03-23T12:44:28;99310.16;;;12.09;55.43
32083;BME280;18597;48.328;7.932;2024-03-23T12:46:54;99309.28;;;12.09;58.80
32083;BME280;18597;48.328;7.932;2024-03-23T12:49:20;99294.53;;;12.68;58.82
32083;BME280;18597;48.328;7.932;2024-03-23T12:51:54;99300.75;;;12.68;53.12
32083;BME280;18597;48.328;7.932;2024-03-23T12:54:22;99296.22;;;12.51;53.00
32083;BME280;18597;48.328;7.932;2024-03-23T12:56:48;99288.75;;;12.55;54.10
32083;BME280;18597;48.328;7.932;2024-03-23T12:59:14;99275.94;;;12.66;53.96
32083;BME280;18597;48.328;7.932;2024-03-23T13:01:40;99285.06;;;12.56;49.25
32083;BME280;18597;48.328;7.932;2024-03-23T13:04:06;99275.63;;;12.69;47.34
32083;BME280;18597;48.328;7.932;2024-03-23T13:06:32;99268.03;;;13.00;47.55
32083;BME280;18597;48.328;7.932;2024-03-23T13:09:01;99266.88;;;13.03;47.25
32083;BME280;18597;48.328;7.932;2024-03-23T13:11:27;99271.56;;;13.45;46.03
32083;BME280;18597;48.328;7.932;2024-03-23T13:13:54;99270.72;;;13.70;45.63
32083;BME280;18597;48.328;7.932;2024-03-23T13:16:20;99276.03;;;13.96;45.24
32083;BME280;18597;48.328;7.932;2024-03-23T13:18:45;99280.63;;;14.12;44.56
32083;BME280;18597;48.328;7.932;2024-03-23T13:21:11;99260.78;;;14.05;45.02
32083;BME280;18597;48.328;7.932;2024-03-23T13:23:40;99253.03;;;13.94;45.10
32083;BME280;18597;48.328;7.932;2024-03-23T13:26:08;99249.81;;;13.90;44.89
32083;BME280;18597;48.328;7.932;2024-03-23T13:28:34;99242.28;;;13.94;45.00
32083;BME280;18597;48.328;7.932;2024-03-23T13:31:01;99226.88;;;14.04;44.64
32083;BME280;18597;48.328;7.932;2024-03-23T13:33:30;99219.53;;;13.72;43.80
32083;BME280;18597;48.328;7.932;2024-03-23T13:35:58;99232.63;;;13.41;46.49
32083;BME280;18597;48.328;7.932;2024-03-23T13:38:24;99228.59;;;12.93;47.01
32083;BME280;18597;48.328;7.932;2024-03-23T13:40:53;99216.53;;;12.53;47.16
32083;BME280;18597;48.328;7.932;2024-03-23T13:43:20;99223.00;;;12.15;47.18
32083;BME280;18597;48.328;7.932;2024-03-23T13:45:47;99224.47;;;12.09;51.71